sensor_id;sensor_type;location;lat;lon;timestamp;pressure;altitude;pressure_sealevel;temperature;humidity
3254;BME280;1639;42.804;23.342;2023-04-15T00:01:57;73063.28;;;-148.52;78.91
3254;BME280;1639;42.804;23.342;2023-04-15T00:04:23;73050.88;;;-148.52;78.94
3254;BME280;1639;42.804;23.342;2023-04-15T00:06:51;73042.59;;;-148.52;78.51
3254;BME280;1639;42.804;23.342;2023-04-15T00:09:18;73042.59;;;-148.52;78.45
3254;BME280;1639;42.804;23.342;2023-04-15T00:11:44;73036.41;;;-148.52;78.70
3254;BME280;1639;42.804;23.342;2023-04-15T00:14:11;73042.59;;;-148.52;78.87
3254;BME280;1639;42.804;23.342;2023-04-15T00:16:36;73040.53;;;-148.52;79.15
3254;BME280;1639;42.804;23.342;2023-04-15T00:19:02;73034.34;;;-148.52;77.90
3254;BME280;1639;42.804;23.342;2023-04-15T00:21:27;73038.47;;;-148.52;77.31
3254;BME280;1639;42.804;23.342;2023-04-15T00:23:53;73044.66;;;-148.52;76.16
3254;BME280;1639;42.804;23.342;2023-04-15T00:26:18;73046.75;;;-148.52;75.60
3254;BME280;1639;42.804;23.342;2023-04-15T00:28:45;73046.75;;;-148.52;74.42
3254;BME280;1639;42.804;23.342;2023-04-15T00:31:10;73050.88;;;-148.52;74.95
3254;BME280;1639;42.804;23.342;2023-04-15T00:33:36;73063.28;;;-148.52;75.45
3254;BME280;1639;42.804;23.342;2023-04-15T00:36:01;73075.69;;;-148.52;75.12
3254;BME280;1639;42.804;23.342;2023-04-15T00:38:28;73081.91;;;-148.52;76.22
3254;BME280;1639;42.804;23.342;2023-04-15T00:40:53;73075.69;;;-148.52;75.15
3254;BME280;1639;42.804;23.342;2023-04-15T00:43:19;73075.69;;;-148.52;75.71
3254;BME280;1639;42.804;23.342;2023-04-15T00:45:45;73079.84;;;-148.52;75.77
3254;BME280;1639;42.804;23.342;2023-04-15T00:48:11;73088.09;;;-148.52;77.49
3254;BME280;1639;42.804;23.342;2023-04-15T00:50:37;73117.06;;;-148.52;80.79
3254;BME280;1639;42.804;23.342;2023-04-15T00:53:02;73104.66;;;-148.52;80.79
3254;BME280;1639;42.804;23.342;2023-04-15T00:55:28;73081.91;;;-148.52;80.23
3254;BME280;1639;42.804;23.342;2023-04-15T00:57:53;73055.00;;;-148.52;80.85
3254;BME280;1639;42.804;23.342;2023-04-15T01:00:19;73042.59;;;-148.52;79.25
3254;BME280;1639;42.804;23.342;2023-04-15T01:02:45;73032.25;;;-148.52;77.44
3254;BME280;1639;42.804;23.342;2023-04-15T01:05:10;73034.34;;;-148.52;77.34
3254;BME280;1639;42.804;23.342;2023-04-15T01:07:36;73046.75;;;-148.52;76.56
3254;BME280;1639;42.804;23.342;2023-04-15T01:10:04;73050.88;;;-148.52;76.47
3254;BME280;1639;42.804;23.342;2023-04-15T01:12:31;73046.75;;;-148.52;76.60
3254;BME280;1639;42.804;23.342;2023-04-15T01:14:58;73048.81;;;-148.52;76.72
3254;BME280;1639;42.804;23.342;2023-04-15T01:17:24;73046.75;;;-148.52;76.02
3254;BME280;1639;42.804;23.342;2023-04-15T01:19:50;73046.75;;;-148.52;75.64
3254;BME280;1639;42.804;23.342;2023-04-15T01:22:16;73052.94;;;-148.52;75.37
3254;BME280;1639;42.804;23.342;2023-04-15T01:24:50;73065.34;;;-148.52;75.00
3254;BME280;1639;42.804;23.342;2023-04-15T01:27:18;73073.63;;;-148.52;76.70
3254;BME280;1639;42.804;23.342;2023-04-15T01:29:44;73112.91;;;-148.52;76.74
3254;BME280;1639;42.804;23.342;2023-04-15T01:32:10;73148.09;;;-148.52;80.47
3254;BME280;1639;42.804;23.342;2023-04-15T01:34:36;73154.28;;;-148.52;82.42
3254;BME280;1639;42.804;23.342;2023-04-15T01:37:01;73181.19;;;-148.52;90.90
3254;BME280;1639;42.804;23.342;2023-04-15T01:39:26;73168.75;;;-148.52;93.06
3254;BME280;1639;42.804;23.342;2023-04-15T01:41:52;73170.84;;;-148.52;93.23
3254;BME280;1639;42.804;23.342;2023-04-15T01:44:17;73166.69;;;-148.52;94.08
3254;BME280;1639;42.804;23.342;2023-04-15T01:46:43;73156.34;;;-148.52;94.56
3254;BME280;1639;42.804;23.342;2023-04-15T01:49:08;73162.56;;;-148.52;93.65
3254;BME280;1639;42.804;23.342;2023-04-15T01:51:34;73164.63;;;-148.52;92.79
3254;BME280;1639;42.804;23.342;2023-04-15T01:53:59;73160.50;;;-148.52;92.20
3254;BME280;1639;42.804;23.342;2023-04-15T01:56:24;73197.72;;;-148.52;92.46
3254;BME280;1639;42.804;23.342;2023-04-15T01:58:50;73201.84;;;-148.52;92.02
3254;BME280;1639;42.804;23.342;2023-04-15T02:01:16;73206.00;;;-148.52;90.82
3254;BME280;1639;42.804;23.342;2023-04-15T02:03:44;73243.22;;;-148.52;90.91
3254;BME280;1639;42.804;23.342;2023-04-15T02:06:09;73272.19;;;-148.52;92.18
3254;BME280;1639;42.804;23.342;2023-04-15T02:08:35;73268.03;;;-148.52;94.29
3254;BME280;1639;42.804;23.342;2023-04-15T02:11:00;73268.03;;;-148.52;94.61
3254;BME280;1639;42.804;23.342;2023-04-15T02:13:26;73274.25;;;-148.52;94.26
3254;BME280;1639;42.804;23.342;2023-04-15T02:15:53;73286.66;;;-148.52;94.71
3254;BME280;1639;42.804;23.342;2023-04-15T02:18:19;73286.66;;;-148.52;96.03
3254;BME280;1639;42.804;23.342;2023-04-15T02:20:44;73307.34;;;-148.52;97.77
3254;BME280;1639;42.804;23.342;2023-04-15T02:23:11;73290.81;;;-148.52;98.58
3254;BME280;1639;42.804;23.342;2023-04-15T02:25:37;73280.47;;;-148.52;97.73
3254;BME280;1639;42.804;23.342;2023-04-15T02:28:05;73278.38;;;-148.52;96.93
3254;BME280;1639;42.804;23.342;2023-04-15T02:30:32;73253.56;;;-148.52;95.95
3254;BME280;1639;42.804;23.342;2023-04-15T02:32:57;73243.22;;;-148.52;94.29
3254;BME280;1639;42.804;23.342;2023-04-15T02:35:22;73243.22;;;-148.52;93.12
3254;BME280;1639;42.804;23.342;2023-04-15T02:37:50;73274.25;;;-148.52;87.92
3254;BME280;1639;42.804;23.342;2023-04-15T02:40:16;73317.69;;;-148.52;84.33
3254;BME280;1639;42.804;23.342;2023-04-15T02:42:42;73340.44;;;-148.52;87.44
3254;BME280;1639;42.804;23.342;2023-04-15T02:45:09;73350.78;;;-148.52;91.46
3254;BME280;1639;42.804;23.342;2023-04-15T02:47:34;73354.91;;;-148.52;94.51
3254;BME280;1639;42.804;23.342;2023-04-15T02:50:02;73359.06;;;-148.52;94.67
3254;BME280;1639;42.804;23.342;2023-04-15T02:52:27;73350.78;;;-148.52;94.32
3254;BME280;1639;42.804;23.342;2023-04-15T02:54:53;73344.56;;;-148.52;94.48
3254;BME280;1639;42.804;23.342;2023-04-15T02:57:24;73338.38;;;-148.52;92.43
3254;BME280;1639;42.804;23.342;2023-04-15T02:59:50;73332.16;;;-148.52;90.33
3254;BME280;1639;42.804;23.342;2023-04-15T03:02:15;73336.31;;;-148.52;89.59
3254;BME280;1639;42.804;23.342;2023-04-15T03:04:41;73332.16;;;-148.52;88.29
3254;BME280;1639;42.804;23.342;2023-04-15T03:07:06;73344.56;;;-148.52;87.71
3254;BME280;1639;42.804;23.342;2023-04-15T03:09:31;73359.06;;;-148.52;95.63
3254;BME280;1639;42.804;23.342;2023-04-15T03:11:57;73375.59;;;-148.52;100.00
3254;BME280;1639;42.804;23.342;2023-04-15T03:14:22;73373.53;;;-148.52;100.00
3254;BME280;1639;42.804;23.342;2023-04-15T03:16:48;73359.06;;;-148.52;100.00
3254;BME280;1639;42.804;23.342;2023-04-15T03:19:14;73361.13;;;-148.52;100.00
3254;BME280;1639;42.804;23.342;2023-04-15T03:21:40;73361.13;;;-148.52;100.00
3254;BME280;1639;42.804;23.342;2023-04-15T03:24:05;73357.00;;;-148.52;100.00
3254;BME280;1639;42.804;23.342;2023-04-15T03:26:31;73361.13;;;-148.52;100.00
3254;BME280;1639;42.804;23.342;2023-04-15T03:28:56;73363.19;;;-148.52;100.00
3254;BME280;1639;42.804;23.342;2023-04-15T03:31:22;73365.25;;;-148.52;99.33
3254;BME280;1639;42.804;23.342;2023-04-15T03:33:47;73363.19;;;-148.52;98.43
3254;BME280;1639;42.804;23.342;2023-04-15T03:36:13;73377.66;;;-148.52;97.47
3254;BME280;1639;42.804;23.342;2023-04-15T03:38:39;73390.09;;;-148.52;96.68
3254;BME280;1639;42.804;23.342;2023-04-15T03:41:04;73390.09;;;-148.52;95.75
3254;BME280;1639;42.804;23.342;2023-04-15T03:43:30;73383.88;;;-148.52;94.61
3254;BME280;1639;42.804;23.342;2023-04-15T03:45:55;73381.81;;;-148.52;93.84
3254;BME280;1639;42.804;23.342;2023-04-15T03:48:21;73377.66;;;-148.52;92.28
3254;BME280;1639;42.804;23.342;2023-04-15T03:50:46;73371.47;;;-148.52;91.38
3254;BME280;1639;42.804;23.342;2023-04-15T03:53:12;73381.81;;;-148.52;90.38
3254;BME280;1639;42.804;23.342;2023-04-15T03:55:37;73400.41;;;-148.52;89.47
3254;BME280;1639;42.804;23.342;2023-04-15T03:58:03;73421.09;;;-148.52;88.12
3254;BME280;1639;42.804;23.342;2023-04-15T04:00:28;73483.16;;;-148.52;89.12
3254;BME280;1639;42.804;23.342;2023-04-15T04:02:54;73510.06;;;-148.52;89.53
3254;BME280;1639;42.804;23.342;2023-04-15T04:05:19;73534.88;;;-148.52;90.04
3254;BME280;1639;42.804;23.342;2023-04-15T04:07:44;73526.59;;;-148.52;90.94
3254;BME280;1639;42.804;23.342;2023-04-15T04:10:10;73526.59;;;-148.52;91.66
3254;BME280;1639;42.804;23.342;2023-04-15T04:12:36;73522.47;;;-148.52;91.20
3254;BME280;1639;42.804;23.342;2023-04-15T04:15:01;73516.25;;;-148.52;91.88
3254;BME280;1639;42.804;23.342;2023-04-15T04:17:27;73510.06;;;-148.52;91.37
3254;BME280;1639;42.804;23.342;2023-04-15T04:19:52;73505.91;;;-148.52;91.56
3254;BME280;1639;42.804;23.342;2023-04-15T04:22:21;73501.78;;;-148.52;92.75
3254;BME280;1639;42.804;23.342;2023-04-15T04:24:48;73485.22;;;-148.52;93.51
3254;BME280;1639;42.804;23.342;2023-04-15T04:27:13;73470.75;;;-148.52;94.85
3254;BME280;1639;42.804;23.342;2023-04-15T04:29:38;73460.41;;;-148.52;95.00
3254;BME280;1639;42.804;23.342;2023-04-15T04:32:04;73464.53;;;-148.52;95.50
3254;BME280;1639;42.804;23.342;2023-04-15T04:34:29;73454.19;;;-148.52;99.29
3254;BME280;1639;42.804;23.342;2023-04-15T04:36:55;73443.84;;;-148.52;100.00
3254;BME280;1639;42.804;23.342;2023-04-15T04:39:20;73414.91;;;-148.52;100.00
3254;BME280;1639;42.804;23.342;2023-04-15T04:41:46;73385.94;;;-148.52;100.00
3254;BME280;1639;42.804;23.342;2023-04-15T04:44:11;73365.25;;;-148.52;100.00
3254;BME280;1639;42.804;23.342;2023-04-15T04:46:36;73342.50;;;-148.52;100.00
3254;BME280;1639;42.804;23.342;2023-04-15T04:49:02;73323.91;;;-148.52;100.00
3254;BME280;1639;42.804;23.342;2023-04-15T04:51:27;73321.81;;;-148.52;100.00
3254;BME280;1639;42.804;23.342;2023-04-15T04:53:53;73299.06;;;-148.52;99.54
3254;BME280;1639;42.804;23.342;2023-04-15T04:56:18;73278.38;;;-148.52;98.48
3254;BME280;1639;42.804;23.342;2023-04-15T04:58:43;73253.56;;;-148.52;96.60
3254;BME280;1639;42.804;23.342;2023-04-15T05:01:09;73230.81;;;-148.52;95.37
3254;BME280;1639;42.804;23.342;2023-04-15T05:03:35;73212.19;;;-148.52;94.40
3254;BME280;1639;42.804;23.342;2023-04-15T05:06:00;73197.72;;;-148.52;93.18
3254;BME280;1639;42.804;23.342;2023-04-15T05:08:30;73170.84;;;-148.52;94.28
3254;BME280;1639;42.804;23.342;2023-04-15T05:10:55;73166.69;;;-148.52;93.06
3254;BME280;1639;42.804;23.342;2023-04-15T05:13:20;73150.16;;;-148.52;92.53
3254;BME280;1639;42.804;23.342;2023-04-15T05:15:46;73133.59;;;-148.52;91.08
3254;BME280;1639;42.804;23.342;2023-04-15T05:18:12;73139.81;;;-148.52;90.60
3254;BME280;1639;42.804;23.342;2023-04-15T05:20:37;73127.41;;;-148.52;90.03
3254;BME280;1639;42.804;23.342;2023-04-15T05:23:03;73110.84;;;-148.52;89.92
3254;BME280;1639;42.804;23.342;2023-04-15T05:25:28;73090.16;;;-148.52;90.53
3254;BME280;1639;42.804;23.342;2023-04-15T05:27:54;73088.09;;;-148.52;89.01
3254;BME280;1639;42.804;23.342;2023-04-15T05:30:19;73061.22;;;-148.52;87.16
3254;BME280;1639;42.804;23.342;2023-04-15T05:32:45;73042.59;;;-148.52;84.90
3254;BME280;1639;42.804;23.342;2023-04-15T05:35:10;73013.66;;;-148.52;82.79
3254;BME280;1639;42.804;23.342;2023-04-15T05:37:36;72997.09;;;-148.52;82.41
3254;BME280;1639;42.804;23.342;2023-04-15T05:40:02;72980.56;;;-148.52;80.75
3254;BME280;1639;42.804;23.342;2023-04-15T05:42:28;72964.00;;;-148.52;78.58
3254;BME280;1639;42.804;23.342;2023-04-15T05:44:54;72943.31;;;-148.52;78.30
3254;BME280;1639;42.804;23.342;2023-04-15T05:47:19;72926.78;;;-148.52;78.05
3254;BME280;1639;42.804;23.342;2023-04-15T05:49:45;72951.59;;;-148.52;76.59
3254;BME280;1639;42.804;23.342;2023-04-15T05:52:10;72926.78;;;-148.52;75.15
3254;BME280;1639;42.804;23.342;2023-04-15T05:54:36;72897.81;;;-148.52;74.55
3254;BME280;1639;42.804;23.342;2023-04-15T05:57:01;72873.00;;;-148.52;73.76
3254;BME280;1639;42.804;23.342;2023-04-15T05:59:26;72864.75;;;-148.52;73.01
3254;BME280;1639;42.804;23.342;2023-04-15T06:01:52;72839.91;;;-148.52;72.37
3254;BME280;1639;42.804;23.342;2023-04-15T06:04:18;72819.25;;;-148.52;71.25
3254;BME280;1639;42.804;23.342;2023-04-15T06:06:43;72804.75;;;-148.52;71.82
3254;BME280;1639;42.804;23.342;2023-04-15T06:09:09;72782.00;;;-148.52;70.09
3254;BME280;1639;42.804;23.342;2023-04-15T06:11:35;72786.16;;;-148.52;69.08
3254;BME280;1639;42.804;23.342;2023-04-15T06:14:00;72769.59;;;-148.52;68.73
3254;BME280;1639;42.804;23.342;2023-04-15T06:16:26;72738.59;;;-148.52;68.98
3254;BME280;1639;42.804;23.342;2023-04-15T06:18:51;72728.25;;;-148.52;70.45
3254;BME280;1639;42.804;23.342;2023-04-15T06:21:17;72697.22;;;-148.52;67.80
3254;BME280;1639;42.804;23.342;2023-04-15T06:23:43;72678.59;;;-148.52;66.83
3254;BME280;1639;42.804;23.342;2023-04-15T06:26:08;72682.75;;;-148.52;67.75
3254;BME280;1639;42.804;23.342;2023-04-15T06:28:33;72662.06;;;-148.52;67.15
3254;BME280;1639;42.804;23.342;2023-04-15T06:30:59;72668.28;;;-148.52;65.28
3254;BME280;1639;42.804;23.342;2023-04-15T06:33:25;72649.66;;;-148.52;64.75
3254;BME280;1639;42.804;23.342;2023-04-15T06:35:51;72626.91;;;-148.52;64.41
3254;BME280;1639;42.804;23.342;2023-04-15T06:38:16;72591.75;;;-148.52;64.84
3254;BME280;1639;42.804;23.342;2023-04-15T06:40:41;72579.34;;;-148.52;64.28
3254;BME280;1639;42.804;23.342;2023-04-15T06:43:07;72569.00;;;-148.52;64.28
3254;BME280;1639;42.804;23.342;2023-04-15T06:45:33;72560.72;;;-148.52;62.47
3254;BME280;1639;42.804;23.342;2023-04-15T06:47:58;72558.66;;;-148.52;63.24
3254;BME280;1639;42.804;23.342;2023-04-15T06:50:24;72554.53;;;-148.52;62.76
3254;BME280;1639;42.804;23.342;2023-04-15T06:52:50;72558.66;;;-148.52;61.65
3254;BME280;1639;42.804;23.342;2023-04-15T06:55:15;72533.84;;;-148.52;62.74
3254;BME280;1639;42.804;23.342;2023-04-15T06:57:41;72513.16;;;-148.52;60.45
3254;BME280;1639;42.804;23.342;2023-04-15T07:00:07;72463.53;;;-148.52;60.39
3254;BME280;1639;42.804;23.342;2023-04-15T07:02:35;72463.53;;;-148.52;58.53
3254;BME280;1639;42.804;23.342;2023-04-15T07:05:00;72444.94;;;-148.52;57.98
3254;BME280;1639;42.804;23.342;2023-04-15T07:07:26;72426.31;;;-148.52;58.53
3254;BME280;1639;42.804;23.342;2023-04-15T07:09:51;72397.38;;;-148.52;57.67
3254;BME280;1639;42.804;23.342;2023-04-15T07:12:18;72399.44;;;-148.52;57.97
3254;BME280;1639;42.804;23.342;2023-04-15T07:14:43;72393.22;;;-148.52;58.19
3254;BME280;1639;42.804;23.342;2023-04-15T07:17:08;72364.28;;;-148.52;59.08
3254;BME280;1639;42.804;23.342;2023-04-15T07:19:34;72349.81;;;-148.52;56.71
3254;BME280;1639;42.804;23.342;2023-04-15T07:22:00;72364.28;;;-148.52;55.49
3254;BME280;1639;42.804;23.342;2023-04-15T07:24:25;72316.72;;;-148.52;56.49
3254;BME280;1639;42.804;23.342;2023-04-15T07:26:53;72275.34;;;-148.52;57.28
3254;BME280;1639;42.804;23.342;2023-04-15T07:29:18;72256.75;;;-148.52;54.35
3254;BME280;1639;42.804;23.342;2023-04-15T07:31:44;72240.22;;;-148.52;53.48
3254;BME280;1639;42.804;23.342;2023-04-15T07:34:09;72209.19;;;-148.52;53.03
3254;BME280;1639;42.804;23.342;2023-04-15T07:36:35;72192.66;;;-148.52;53.05
3254;BME280;1639;42.804;23.342;2023-04-15T07:39:01;72161.63;;;-148.52;53.96
3254;BME280;1639;42.804;23.342;2023-04-15T07:41:28;72159.56;;;-148.52;50.87
3254;BME280;1639;42.804;23.342;2023-04-15T07:43:54;72169.91;;;-148.52;51.14
3254;BME280;1639;42.804;23.342;2023-04-15T07:46:19;72190.56;;;-148.52;49.73
3254;BME280;1639;42.804;23.342;2023-04-15T07:48:44;72169.91;;;-148.52;50.01
3254;BME280;1639;42.804;23.342;2023-04-15T07:51:10;72182.31;;;-148.52;48.37
3254;BME280;1639;42.804;23.342;2023-04-15T07:53:37;72140.94;;;-148.52;50.38
3254;BME280;1639;42.804;23.342;2023-04-15T07:56:02;72083.06;;;-148.52;50.37
3254;BME280;1639;42.804;23.342;2023-04-15T07:58:28;72045.84;;;-148.52;47.55
3254;BME280;1639;42.804;23.342;2023-04-15T08:00:53;72052.03;;;-148.52;47.49
3254;BME280;1639;42.804;23.342;2023-04-15T08:03:20;72045.84;;;-148.52;46.25
3254;BME280;1639;42.804;23.342;2023-04-15T08:05:46;72039.63;;;-148.52;46.40
3254;BME280;1639;42.804;23.342;2023-04-15T08:08:11;72008.63;;;-148.52;46.91
3254;BME280;1639;42.804;23.342;2023-04-15T08:10:37;72031.38;;;-148.52;45.91
3254;BME280;1639;42.804;23.342;2023-04-15T08:13:03;72039.63;;;-148.52;44.65
3254;BME280;1639;42.804;23.342;2023-04-15T08:15:28;72016.88;;;-148.52;45.62
3254;BME280;1639;42.804;23.342;2023-04-15T08:17:53;72008.63;;;-148.52;44.98
3254;BME280;1639;42.804;23.342;2023-04-15T08:20:19;71973.47;;;-148.52;44.58
3254;BME280;1639;42.804;23.342;2023-04-15T08:22:44;71963.13;;;-148.52;41.50
3254;BME280;1639;42.804;23.342;2023-04-15T08:25:11;71930.03;;;-148.52;42.59
3254;BME280;1639;42.804;23.342;2023-04-15T08:27:37;71907.31;;;-148.52;42.01
3254;BME280;1639;42.804;23.342;2023-04-15T08:30:03;71884.56;;;-148.52;39.70
3254;BME280;1639;42.804;23.342;2023-04-15T08:32:28;71901.09;;;-148.52;40.05
3254;BME280;1639;42.804;23.342;2023-04-15T08:34:54;71905.22;;;-148.52;39.64
3254;BME280;1639;42.804;23.342;2023-04-15T08:37:19;71892.81;;;-148.52;40.04
3254;BME280;1639;42.804;23.342;2023-04-15T08:39:45;71896.97;;;-148.52;39.66
3254;BME280;1639;42.804;23.342;2023-04-15T08:42:15;71944.53;;;-148.52;40.80
3254;BME280;1639;42.804;23.342;2023-04-15T08:44:42;71985.88;;;-148.52;39.44
3254;BME280;1639;42.804;23.342;2023-04-15T08:47:12;71981.75;;;-148.52;39.55
3254;BME280;1639;42.804;23.342;2023-04-15T08:49:42;71944.53;;;-148.52;39.95
3254;BME280;1639;42.804;23.342;2023-04-15T08:52:08;71917.63;;;-148.52;41.04
3254;BME280;1639;42.804;23.342;2023-04-15T08:54:34;71855.59;;;-148.52;41.46
3254;BME280;1639;42.804;23.342;2023-04-15T08:57:01;71824.59;;;-148.52;36.90
3254;BME280;1639;42.804;23.342;2023-04-15T08:59:27;71797.72;;;-148.52;39.69
3254;BME280;1639;42.804;23.342;2023-04-15T09:01:54;71822.53;;;-148.52;36.06
3254;BME280;1639;42.804;23.342;2023-04-15T09:04:21;71843.19;;;-148.52;38.60
3254;BME280;1639;42.804;23.342;2023-04-15T09:06:46;71892.81;;;-148.52;38.55
3254;BME280;1639;42.804;23.342;2023-04-15T09:09:12;71954.84;;;-148.52;39.28
3254;BME280;1639;42.804;23.342;2023-04-15T09:11:38;71959.00;;;-148.52;39.25
3254;BME280;1639;42.804;23.342;2023-04-15T09:14:04;71942.44;;;-148.52;41.49
3254;BME280;1639;42.804;23.342;2023-04-15T09:16:30;71938.31;;;-148.52;38.02
3254;BME280;1639;42.804;23.342;2023-04-15T09:18:55;71936.25;;;-148.52;37.76
3254;BME280;1639;42.804;23.342;2023-04-15T09:21:21;71942.44;;;-148.52;39.43
3254;BME280;1639;42.804;23.342;2023-04-15T09:23:58;71909.38;;;-148.52;38.10
3254;BME280;1639;42.804;23.342;2023-04-15T09:26:34;71903.16;;;-148.52;38.24
3254;BME280;1639;42.804;23.342;2023-04-15T09:29:07;71942.44;;;-148.52;41.05
3254;BME280;1639;42.804;23.342;2023-04-15T09:31:34;71936.25;;;-148.52;37.89
3254;BME280;1639;42.804;23.342;2023-04-15T09:33:59;71942.44;;;-148.52;37.63
3254;BME280;1639;42.804;23.342;2023-04-15T09:36:25;71936.25;;;-148.52;37.95
3254;BME280;1639;42.804;23.342;2023-04-15T09:38:56;71911.44;;;-148.52;38.57
3254;BME280;1639;42.804;23.342;2023-04-15T09:41:22;71890.75;;;-148.52;38.76
3254;BME280;1639;42.804;23.342;2023-04-15T09:43:48;71915.56;;;-148.52;36.96
3254;BME280;1639;42.804;23.342;2023-04-15T09:46:13;71913.50;;;-148.52;37.18
3254;BME280;1639;42.804;23.342;2023-04-15T09:48:39;71907.31;;;-148.52;35.95
3254;BME280;1639;42.804;23.342;2023-04-15T09:51:04;71925.91;;;-148.52;35.69
3254;BME280;1639;42.804;23.342;2023-04-15T09:53:33;71917.63;;;-148.52;33.95
3254;BME280;1639;42.804;23.342;2023-04-15T09:55:59;71927.97;;;-148.52;38.36
3254;BME280;1639;42.804;23.342;2023-04-15T09:58:29;71923.84;;;-148.52;36.72
3254;BME280;1639;42.804;23.342;2023-04-15T10:00:57;71921.78;;;-148.52;37.48
3254;BME280;1639;42.804;23.342;2023-04-15T10:03:30;71942.44;;;-148.52;36.96
3254;BME280;1639;42.804;23.342;2023-04-15T10:05:58;71950.72;;;-148.52;34.83
3254;BME280;1639;42.804;23.342;2023-04-15T10:08:26;71987.94;;;-148.52;35.14
3254;BME280;1639;42.804;23.342;2023-04-15T10:10:52;71975.53;;;-148.52;35.36
3254;BME280;1639;42.804;23.342;2023-04-15T10:13:20;71954.84;;;-148.52;34.93
3254;BME280;1639;42.804;23.342;2023-04-15T10:15:51;72000.34;;;-148.52;37.65
3254;BME280;1639;42.804;23.342;2023-04-15T10:18:20;72012.75;;;-148.52;37.00
3254;BME280;1639;42.804;23.342;2023-04-15T10:20:48;72000.34;;;-148.52;35.96
3254;BME280;1639;42.804;23.342;2023-04-15T10:23:14;71965.19;;;-148.52;37.56
3254;BME280;1639;42.804;23.342;2023-04-15T10:25:40;71934.19;;;-148.52;37.23
3254;BME280;1639;42.804;23.342;2023-04-15T10:28:06;71913.50;;;-148.52;34.28
3254;BME280;1639;42.804;23.342;2023-04-15T10:30:33;71903.16;;;-148.52;32.60
3254;BME280;1639;42.804;23.342;2023-04-15T10:33:00;71861.81;;;-148.52;32.85
3254;BME280;1639;42.804;23.342;2023-04-15T10:35:28;71799.78;;;-148.52;31.89
3254;BME280;1639;42.804;23.342;2023-04-15T10:37:55;71762.56;;;-148.52;30.60
3254;BME280;1639;42.804;23.342;2023-04-15T10:40:26;71741.88;;;-148.52;32.25
3254;BME280;1639;42.804;23.342;2023-04-15T10:42:56;71735.69;;;-148.52;30.41
3254;BME280;1639;42.804;23.342;2023-04-15T10:45:24;71748.09;;;-148.52;30.75
3254;BME280;1639;42.804;23.342;2023-04-15T10:47:54;71787.38;;;-148.52;30.45
3254;BME280;1639;42.804;23.342;2023-04-15T10:50:19;71789.44;;;-148.52;31.22
3254;BME280;1639;42.804;23.342;2023-04-15T10:52:45;71762.56;;;-148.52;30.96
3254;BME280;1639;42.804;23.342;2023-04-15T10:55:17;71727.41;;;-148.52;31.20
3254;BME280;1639;42.804;23.342;2023-04-15T10:57:43;71692.28;;;-148.52;30.42
3254;BME280;1639;42.804;23.342;2023-04-15T11:00:17;71710.88;;;-148.52;29.78
3254;BME280;1639;42.804;23.342;2023-04-15T11:02:56;71706.75;;;-148.52;29.60
3254;BME280;1639;42.804;23.342;2023-04-15T11:08:13;71673.66;;;-148.52;30.36
3254;BME280;1639;42.804;23.342;2023-04-15T11:10:49;71632.31;;;-148.52;30.16
3254;BME280;1639;42.804;23.342;2023-04-15T11:13:17;71636.44;;;-148.52;27.89
3254;BME280;1639;42.804;23.342;2023-04-15T11:15:47;71655.06;;;-148.52;28.13
3254;BME280;1639;42.804;23.342;2023-04-15T11:18:20;71648.84;;;-148.52;29.22
3254;BME280;1639;42.804;23.342;2023-04-15T11:20:48;71640.59;;;-148.52;28.28
3254;BME280;1639;42.804;23.342;2023-04-15T11:23:18;71638.50;;;-148.52;29.69
3254;BME280;1639;42.804;23.342;2023-04-15T11:25:44;71624.03;;;-148.52;29.00
3254;BME280;1639;42.804;23.342;2023-04-15T11:28:11;71613.69;;;-148.52;29.91
3254;BME280;1639;42.804;23.342;2023-04-15T11:30:38;71621.97;;;-148.52;29.24
3254;BME280;1639;42.804;23.342;2023-04-15T11:33:08;71619.91;;;-148.52;28.97
3254;BME280;1639;42.804;23.342;2023-04-15T11:35:34;71609.56;;;-148.52;29.43
3254;BME280;1639;42.804;23.342;2023-04-15T11:38:04;71582.69;;;-148.52;28.48
3254;BME280;1639;42.804;23.342;2023-04-15T11:40:31;71570.28;;;-148.52;29.27
3254;BME280;1639;42.804;23.342;2023-04-15T11:43:13;71545.47;;;-148.52;28.16
3254;BME280;1639;42.804;23.342;2023-04-15T11:45:50;71526.88;;;-148.52;27.73
3254;BME280;1639;42.804;23.342;2023-04-15T11:48:18;71518.59;;;-148.52;28.85
3254;BME280;1639;42.804;23.342;2023-04-15T11:50:43;71520.66;;;-148.52;27.83
3254;BME280;1639;42.804;23.342;2023-04-15T11:53:10;71547.53;;;-148.52;28.04
3254;BME280;1639;42.804;23.342;2023-04-15T11:55:44;71555.81;;;-148.52;28.31
3254;BME280;1639;42.804;23.342;2023-04-15T11:58:28;71543.41;;;-148.52;29.46
3254;BME280;1639;42.804;23.342;2023-04-15T12:00:57;71528.94;;;-148.52;27.55
3254;BME280;1639;42.804;23.342;2023-04-15T12:11:17;71508.25;;;-148.52;28.93
3254;BME280;1639;42.804;23.342;2023-04-15T12:13:46;71493.78;;;-148.52;28.71
3254;BME280;1639;42.804;23.342;2023-04-15T12:16:16;71495.84;;;-148.52;28.07
3254;BME280;1639;42.804;23.342;2023-04-15T12:18:44;71497.94;;;-148.52;28.40
3254;BME280;1639;42.804;23.342;2023-04-15T12:21:10;71491.72;;;-148.52;29.12
3254;BME280;1639;42.804;23.342;2023-04-15T12:24:00;71487.59;;;-148.52;28.18
3254;BME280;1639;42.804;23.342;2023-04-15T12:26:50;71493.78;;;-148.52;26.93
3254;BME280;1639;42.804;23.342;2023-04-15T12:29:16;71512.41;;;-148.52;27.12
3254;BME280;1639;42.804;23.342;2023-04-15T12:32:09;71502.06;;;-148.52;27.11
3254;BME280;1639;42.804;23.342;2023-04-15T12:34:40;71497.94;;;-148.52;27.66
3254;BME280;1639;42.804;23.342;2023-04-15T12:37:08;71531.00;;;-148.52;27.87
3254;BME280;1639;42.804;23.342;2023-04-15T12:39:35;71547.53;;;-148.52;27.24
3254;BME280;1639;42.804;23.342;2023-04-15T12:42:02;71568.22;;;-148.52;26.10
3254;BME280;1639;42.804;23.342;2023-04-15T12:44:28;71564.09;;;-148.52;27.03
3254;BME280;1639;42.804;23.342;2023-04-15T12:46:54;71599.22;;;-148.52;26.40
3254;BME280;1639;42.804;23.342;2023-04-15T12:49:20;71586.81;;;-148.52;27.07
3254;BME280;1639;42.804;23.342;2023-04-15T12:51:51;71551.69;;;-148.52;27.48
3254;BME280;1639;42.804;23.342;2023-04-15T12:54:17;71541.34;;;-148.52;27.24
3254;BME280;1639;42.804;23.342;2023-04-15T12:56:45;71539.28;;;-148.52;27.53
3254;BME280;1639;42.804;23.342;2023-04-15T12:59:12;71535.13;;;-148.52;27.89